Decoded Metar for DAOI (ECH-CHELIFF in ALGERIA) (IATA:QAS) | Meteo·Mobile Aviation Weather
aviador You're here:

DAOI Decoded Metar

ECH-CHELIFF in ALGERIA
Report Time2019-08-19 10:00:00
UTC Time2019-08-19 10:49:05
Flight Rules vfr VFR
Wind040° at 10 kt
W.Decomp.*RWY 08: 7.7 kt HW 6.4 kt LCW
Visibility9999 m
Phenomena:N/A
Clouds:N/A
Expected CloudBase > 7,200 ft AGL from Temp-Dew spread
CeilingNone
Temp31°C (ISA +17)
Dew Point13°C (33% RH)
Heat Index30.0°C
AAT28.3°C
QNH1015 hPa
Density Alt2,539 ft
Elevation469 ft
Report Wrong Elevation
Raw Report
METAR DAOI 191000Z 04010KT CAVOK 31/13 Q1015=

Extra information for DAOI:More info

Metar Taf Metar & Taf Last 4 Metars F.Rules Stats Wind Profile Meteogram Temp Stats Airport Information Weather charts Add Link Nearby VenuesMetar ALERT Operation Metar Decoded Social comments